sensor_id;sensor_type;location;lat;lon;timestamp;P1;durP1;ratioP1;P2;durP2;ratioP2
78027;SDS011;67235;45.638;11.714;2023-02-21T00:00:54;93.75;;;44.53;;
78027;SDS011;67235;45.638;11.714;2023-02-21T00:03:38;79.43;;;41.17;;
78027;SDS011;67235;45.638;11.714;2023-02-21T00:06:22;82.95;;;40.33;;
78027;SDS011;67235;45.638;11.714;2023-02-21T00:09:06;87.75;;;43.13;;
78027;SDS011;67235;45.638;11.714;2023-02-21T00:11:50;81.90;;;41.28;;
78027;SDS011;67235;45.638;11.714;2023-02-21T00:14:38;81.05;;;39.45;;
78027;SDS011;67235;45.638;11.714;2023-02-21T00:17:22;102.57;;;45.13;;
78027;SDS011;67235;45.638;11.714;2023-02-21T00:20:07;120.07;;;51.55;;
78027;SDS011;67235;45.638;11.714;2023-02-21T00:22:51;115.78;;;54.70;;
78027;SDS011;67235;45.638;11.714;2023-02-21T00:25:35;111.88;;;54.67;;
78027;SDS011;67235;45.638;11.714;2023-02-21T00:28:20;99.68;;;50.13;;
78027;SDS011;67235;45.638;11.714;2023-02-21T00:31:04;111.10;;;52.93;;
78027;SDS011;67235;45.638;11.714;2023-02-21T00:33:48;110.55;;;53.30;;
78027;SDS011;67235;45.638;11.714;2023-02-21T00:36:32;91.43;;;46.28;;
78027;SDS011;67235;45.638;11.714;2023-02-21T00:39:16;92.18;;;45.70;;
78027;SDS011;67235;45.638;11.714;2023-02-21T00:42:00;89.47;;;45.28;;
78027;SDS011;67235;45.638;11.714;2023-02-21T00:44:44;97.93;;;46.00;;
78027;SDS011;67235;45.638;11.714;2023-02-21T00:47:29;106.85;;;51.28;;
78027;SDS011;67235;45.638;11.714;2023-02-21T00:50:13;121.38;;;55.53;;
78027;SDS011;67235;45.638;11.714;2023-02-21T00:52:58;97.72;;;47.90;;
78027;SDS011;67235;45.638;11.714;2023-02-21T00:55:42;104.63;;;49.47;;
78027;SDS011;67235;45.638;11.714;2023-02-21T00:58:26;107.77;;;50.17;;
78027;SDS011;67235;45.638;11.714;2023-02-21T01:01:11;107.43;;;51.28;;
78027;SDS011;67235;45.638;11.714;2023-02-21T01:03:57;101.60;;;50.55;;
78027;SDS011;67235;45.638;11.714;2023-02-21T01:06:41;97.45;;;45.70;;
78027;SDS011;67235;45.638;11.714;2023-02-21T01:09:25;103.70;;;47.42;;
78027;SDS011;67235;45.638;11.714;2023-02-21T01:12:09;107.97;;;48.87;;
78027;SDS011;67235;45.638;11.714;2023-02-21T01:14:54;102.60;;;48.92;;
78027;SDS011;67235;45.638;11.714;2023-02-21T01:17:39;97.82;;;48.60;;
78027;SDS011;67235;45.638;11.714;2023-02-21T01:20:23;107.50;;;49.25;;
78027;SDS011;67235;45.638;11.714;2023-02-21T01:23:07;99.25;;;47.63;;
78027;SDS011;67235;45.638;11.714;2023-02-21T01:25:51;94.00;;;45.07;;
78027;SDS011;67235;45.638;11.714;2023-02-21T01:28:35;98.15;;;46.60;;
78027;SDS011;67235;45.638;11.714;2023-02-21T01:31:20;96.68;;;47.63;;
78027;SDS011;67235;45.638;11.714;2023-02-21T01:34:05;83.43;;;44.47;;
78027;SDS011;67235;45.638;11.714;2023-02-21T01:36:50;104.13;;;50.00;;
78027;SDS011;67235;45.638;11.714;2023-02-21T01:39:34;100.63;;;49.10;;
78027;SDS011;67235;45.638;11.714;2023-02-21T01:42:19;96.30;;;45.85;;
78027;SDS011;67235;45.638;11.714;2023-02-21T01:45:46;96.20;;;48.25;;
78027;SDS011;67235;45.638;11.714;2023-02-21T01:48:30;103.22;;;48.83;;
78027;SDS011;67235;45.638;11.714;2023-02-21T01:51:18;105.47;;;50.00;;
78027;SDS011;67235;45.638;11.714;2023-02-21T01:54:05;99.77;;;48.03;;
78027;SDS011;67235;45.638;11.714;2023-02-21T01:56:51;107.28;;;48.55;;
78027;SDS011;67235;45.638;11.714;2023-02-21T01:59:36;91.25;;;44.88;;
78027;SDS011;67235;45.638;11.714;2023-02-21T02:02:23;105.63;;;49.50;;
78027;SDS011;67235;45.638;11.714;2023-02-21T02:05:17;109.25;;;51.25;;
78027;SDS011;67235;45.638;11.714;2023-02-21T02:08:03;108.87;;;50.80;;
78027;SDS011;67235;45.638;11.714;2023-02-21T02:10:48;112.13;;;54.42;;
78027;SDS011;67235;45.638;11.714;2023-02-21T02:13:52;105.32;;;49.90;;
78027;SDS011;67235;45.638;11.714;2023-02-21T02:16:39;94.53;;;45.72;;
78027;SDS011;67235;45.638;11.714;2023-02-21T02:19:41;98.90;;;49.28;;
78027;SDS011;67235;45.638;11.714;2023-02-21T02:22:35;102.73;;;51.70;;
78027;SDS011;67235;45.638;11.714;2023-02-21T02:25:17;117.70;;;55.80;;
78027;SDS011;67235;45.638;11.714;2023-02-21T02:28:22;133.60;;;59.50;;
78027;SDS011;67235;45.638;11.714;2023-02-21T02:30:58;117.15;;;55.20;;
78027;SDS011;67235;45.638;11.714;2023-02-21T02:36:10;114.03;;;51.80;;
78027;SDS011;67235;45.638;11.714;2023-02-21T02:39:00;105.57;;;48.35;;
78027;SDS011;67235;45.638;11.714;2023-02-21T02:41:45;108.55;;;52.55;;
78027;SDS011;67235;45.638;11.714;2023-02-21T02:44:41;106.95;;;51.33;;
78027;SDS011;67235;45.638;11.714;2023-02-21T02:47:18;109.45;;;52.45;;
78027;SDS011;67235;45.638;11.714;2023-02-21T02:49:49;104.43;;;51.97;;
78027;SDS011;67235;45.638;11.714;2023-02-21T02:52:16;106.63;;;51.67;;
78027;SDS011;67235;45.638;11.714;2023-02-21T02:54:42;104.93;;;50.60;;
78027;SDS011;67235;45.638;11.714;2023-02-21T02:57:08;103.55;;;53.58;;
78027;SDS011;67235;45.638;11.714;2023-02-21T02:59:38;111.70;;;51.43;;
78027;SDS011;67235;45.638;11.714;2023-02-21T03:07:57;95.75;;;47.67;;
78027;SDS011;67235;45.638;11.714;2023-02-21T03:16:32;109.07;;;52.10;;
78027;SDS011;67235;45.638;11.714;2023-02-21T03:19:07;104.50;;;52.55;;
78027;SDS011;67235;45.638;11.714;2023-02-21T03:21:38;105.47;;;51.30;;
78027;SDS011;67235;45.638;11.714;2023-02-21T03:24:07;96.50;;;48.85;;
78027;SDS011;67235;45.638;11.714;2023-02-21T03:26:36;96.53;;;47.90;;
78027;SDS011;67235;45.638;11.714;2023-02-21T03:29:05;79.22;;;45.47;;
78027;SDS011;67235;45.638;11.714;2023-02-21T03:31:34;87.93;;;48.35;;
78027;SDS011;67235;45.638;11.714;2023-02-21T03:34:04;89.30;;;47.65;;
78027;SDS011;67235;45.638;11.714;2023-02-21T03:36:30;86.57;;;47.75;;
78027;SDS011;67235;45.638;11.714;2023-02-21T03:38:57;89.88;;;48.13;;
78027;SDS011;67235;45.638;11.714;2023-02-21T03:41:23;88.97;;;49.28;;
78027;SDS011;67235;45.638;11.714;2023-02-21T03:43:49;84.88;;;46.75;;
78027;SDS011;67235;45.638;11.714;2023-02-21T03:46:14;87.57;;;47.67;;
78027;SDS011;67235;45.638;11.714;2023-02-21T03:48:40;91.88;;;46.33;;
78027;SDS011;67235;45.638;11.714;2023-02-21T03:51:06;89.97;;;46.57;;
78027;SDS011;67235;45.638;11.714;2023-02-21T03:53:32;93.93;;;46.38;;
78027;SDS011;67235;45.638;11.714;2023-02-21T03:55:58;90.05;;;46.15;;
78027;SDS011;67235;45.638;11.714;2023-02-21T03:58:24;98.17;;;50.20;;
78027;SDS011;67235;45.638;11.714;2023-02-21T04:00:50;95.93;;;49.58;;
78027;SDS011;67235;45.638;11.714;2023-02-21T04:03:17;100.85;;;48.97;;
78027;SDS011;67235;45.638;11.714;2023-02-21T04:05:43;98.23;;;47.13;;
78027;SDS011;67235;45.638;11.714;2023-02-21T04:08:09;99.82;;;49.90;;
78027;SDS011;67235;45.638;11.714;2023-02-21T04:10:35;106.10;;;52.97;;
78027;SDS011;67235;45.638;11.714;2023-02-21T04:13:01;92.63;;;46.38;;
78027;SDS011;67235;45.638;11.714;2023-02-21T04:15:27;94.57;;;48.15;;
78027;SDS011;67235;45.638;11.714;2023-02-21T04:17:53;91.77;;;47.47;;
78027;SDS011;67235;45.638;11.714;2023-02-21T04:20:19;92.70;;;48.40;;
78027;SDS011;67235;45.638;11.714;2023-02-21T04:22:45;86.25;;;46.65;;
78027;SDS011;67235;45.638;11.714;2023-02-21T04:25:11;77.53;;;43.97;;
78027;SDS011;67235;45.638;11.714;2023-02-21T04:27:37;88.20;;;44.92;;
78027;SDS011;67235;45.638;11.714;2023-02-21T04:30:02;92.53;;;46.72;;
78027;SDS011;67235;45.638;11.714;2023-02-21T04:32:29;83.80;;;44.30;;
78027;SDS011;67235;45.638;11.714;2023-02-21T04:34:56;81.40;;;43.53;;
78027;SDS011;67235;45.638;11.714;2023-02-21T04:37:23;79.93;;;44.25;;
78027;SDS011;67235;45.638;11.714;2023-02-21T04:39:49;83.65;;;45.05;;
78027;SDS011;67235;45.638;11.714;2023-02-21T04:42:15;92.37;;;46.53;;
78027;SDS011;67235;45.638;11.714;2023-02-21T04:44:43;93.15;;;45.33;;
78027;SDS011;67235;45.638;11.714;2023-02-21T04:47:08;88.70;;;45.30;;
78027;SDS011;67235;45.638;11.714;2023-02-21T04:49:35;88.33;;;44.87;;
78027;SDS011;67235;45.638;11.714;2023-02-21T04:52:01;87.05;;;44.63;;
78027;SDS011;67235;45.638;11.714;2023-02-21T04:54:26;92.80;;;45.65;;
78027;SDS011;67235;45.638;11.714;2023-02-21T04:56:52;82.30;;;44.93;;
78027;SDS011;67235;45.638;11.714;2023-02-21T04:59:18;85.10;;;45.15;;
78027;SDS011;67235;45.638;11.714;2023-02-21T05:01:44;86.50;;;44.90;;
78027;SDS011;67235;45.638;11.714;2023-02-21T05:04:10;88.05;;;45.20;;
78027;SDS011;67235;45.638;11.714;2023-02-21T05:06:35;85.50;;;43.97;;
78027;SDS011;67235;45.638;11.714;2023-02-21T05:09:02;96.70;;;45.95;;
78027;SDS011;67235;45.638;11.714;2023-02-21T05:11:31;95.35;;;46.10;;
78027;SDS011;67235;45.638;11.714;2023-02-21T05:13:58;93.20;;;45.85;;
78027;SDS011;67235;45.638;11.714;2023-02-21T05:16:24;92.03;;;44.73;;
78027;SDS011;67235;45.638;11.714;2023-02-21T05:18:50;92.10;;;42.42;;
78027;SDS011;67235;45.638;11.714;2023-02-21T05:21:17;90.70;;;41.75;;
78027;SDS011;67235;45.638;11.714;2023-02-21T05:23:43;92.13;;;43.70;;
78027;SDS011;67235;45.638;11.714;2023-02-21T05:26:20;103.03;;;46.75;;
78027;SDS011;67235;45.638;11.714;2023-02-21T05:28:55;97.47;;;44.05;;
78027;SDS011;67235;45.638;11.714;2023-02-21T05:31:21;94.95;;;44.35;;
78027;SDS011;67235;45.638;11.714;2023-02-21T05:33:47;92.80;;;44.53;;
78027;SDS011;67235;45.638;11.714;2023-02-21T05:36:13;87.18;;;42.97;;
78027;SDS011;67235;45.638;11.714;2023-02-21T05:38:46;92.80;;;42.95;;
78027;SDS011;67235;45.638;11.714;2023-02-21T05:41:13;87.57;;;40.70;;
78027;SDS011;67235;45.638;11.714;2023-02-21T05:43:42;85.50;;;43.33;;
78027;SDS011;67235;45.638;11.714;2023-02-21T05:46:30;88.03;;;43.30;;
78027;SDS011;67235;45.638;11.714;2023-02-21T05:48:56;102.20;;;47.85;;
78027;SDS011;67235;45.638;11.714;2023-02-21T05:51:24;115.57;;;48.47;;
78027;SDS011;67235;45.638;11.714;2023-02-21T05:53:51;99.40;;;45.17;;
78027;SDS011;67235;45.638;11.714;2023-02-21T05:56:17;104.53;;;46.42;;
78027;SDS011;67235;45.638;11.714;2023-02-21T05:58:45;109.25;;;49.55;;
78027;SDS011;67235;45.638;11.714;2023-02-21T06:01:11;109.35;;;46.53;;
78027;SDS011;67235;45.638;11.714;2023-02-21T06:03:37;117.57;;;47.67;;
78027;SDS011;67235;45.638;11.714;2023-02-21T06:06:03;112.82;;;46.72;;
78027;SDS011;67235;45.638;11.714;2023-02-21T06:08:29;106.10;;;45.85;;
78027;SDS011;67235;45.638;11.714;2023-02-21T06:10:55;120.28;;;48.83;;
78027;SDS011;67235;45.638;11.714;2023-02-21T06:13:21;127.03;;;49.47;;
78027;SDS011;67235;45.638;11.714;2023-02-21T06:15:46;132.00;;;53.50;;
78027;SDS011;67235;45.638;11.714;2023-02-21T06:18:13;118.53;;;49.43;;
78027;SDS011;67235;45.638;11.714;2023-02-21T06:20:39;112.20;;;47.75;;
78027;SDS011;67235;45.638;11.714;2023-02-21T06:23:05;112.20;;;46.72;;
78027;SDS011;67235;45.638;11.714;2023-02-21T06:25:31;114.20;;;47.20;;
78027;SDS011;67235;45.638;11.714;2023-02-21T07:13:51;277.77;;;113.17;;
78027;SDS011;67235;45.638;11.714;2023-02-21T07:16:21;237.93;;;98.07;;
78027;SDS011;67235;45.638;11.714;2023-02-21T07:18:47;192.05;;;79.25;;
78027;SDS011;67235;45.638;11.714;2023-02-21T07:21:13;190.43;;;80.20;;
78027;SDS011;67235;45.638;11.714;2023-02-21T07:23:42;157.93;;;69.40;;
78027;SDS011;67235;45.638;11.714;2023-02-21T07:36:59;176.02;;;82.45;;
78027;SDS011;67235;45.638;11.714;2023-02-21T07:39:27;176.85;;;82.43;;
78027;SDS011;67235;45.638;11.714;2023-02-21T07:42:05;179.93;;;82.37;;
78027;SDS011;67235;45.638;11.714;2023-02-21T07:44:37;177.68;;;78.38;;
78027;SDS011;67235;45.638;11.714;2023-02-21T07:47:12;164.80;;;74.22;;
78027;SDS011;67235;45.638;11.714;2023-02-21T07:49:43;173.95;;;74.63;;
78027;SDS011;67235;45.638;11.714;2023-02-21T07:52:55;151.05;;;68.45;;
78027;SDS011;67235;45.638;11.714;2023-02-21T07:55:37;140.20;;;67.77;;
78027;SDS011;67235;45.638;11.714;2023-02-21T07:58:16;137.52;;;63.72;;
78027;SDS011;67235;45.638;11.714;2023-02-21T08:00:48;145.80;;;66.20;;
78027;SDS011;67235;45.638;11.714;2023-02-21T08:03:15;143.88;;;65.13;;
78027;SDS011;67235;45.638;11.714;2023-02-21T08:05:44;126.78;;;62.47;;
78027;SDS011;67235;45.638;11.714;2023-02-21T08:08:11;126.00;;;64.67;;
78027;SDS011;67235;45.638;11.714;2023-02-21T08:10:37;127.05;;;62.72;;
78027;SDS011;67235;45.638;11.714;2023-02-21T08:13:03;130.45;;;63.90;;
78027;SDS011;67235;45.638;11.714;2023-02-21T08:15:29;123.18;;;62.33;;
78027;SDS011;67235;45.638;11.714;2023-02-21T08:17:55;133.50;;;66.97;;
78027;SDS011;67235;45.638;11.714;2023-02-21T08:20:21;135.00;;;65.18;;
78027;SDS011;67235;45.638;11.714;2023-02-21T08:22:47;137.32;;;65.78;;
78027;SDS011;67235;45.638;11.714;2023-02-21T08:25:13;132.13;;;64.75;;
78027;SDS011;67235;45.638;11.714;2023-02-21T08:27:41;132.55;;;65.35;;
78027;SDS011;67235;45.638;11.714;2023-02-21T08:30:09;137.35;;;65.10;;
78027;SDS011;67235;45.638;11.714;2023-02-21T08:32:38;131.83;;;62.47;;
78027;SDS011;67235;45.638;11.714;2023-02-21T08:35:04;127.60;;;63.08;;
78027;SDS011;67235;45.638;11.714;2023-02-21T08:37:34;128.68;;;60.35;;
78027;SDS011;67235;45.638;11.714;2023-02-21T08:40:01;124.15;;;61.05;;
78027;SDS011;67235;45.638;11.714;2023-02-21T08:42:28;138.98;;;67.25;;
78027;SDS011;67235;45.638;11.714;2023-02-21T08:44:54;124.87;;;61.77;;
78027;SDS011;67235;45.638;11.714;2023-02-21T08:47:21;123.95;;;57.70;;
78027;SDS011;67235;45.638;11.714;2023-02-21T08:49:47;122.38;;;57.25;;
78027;SDS011;67235;45.638;11.714;2023-02-21T08:52:14;122.05;;;55.67;;
78027;SDS011;67235;45.638;11.714;2023-02-21T08:54:42;130.03;;;57.97;;
78027;SDS011;67235;45.638;11.714;2023-02-21T08:57:08;128.10;;;59.65;;
78027;SDS011;67235;45.638;11.714;2023-02-21T08:59:34;126.55;;;63.65;;
78027;SDS011;67235;45.638;11.714;2023-02-21T09:02:01;111.97;;;56.10;;
78027;SDS011;67235;45.638;11.714;2023-02-21T09:04:27;108.05;;;51.42;;
78027;SDS011;67235;45.638;11.714;2023-02-21T09:06:54;107.28;;;49.60;;
78027;SDS011;67235;45.638;11.714;2023-02-21T09:09:20;113.35;;;50.47;;
78027;SDS011;67235;45.638;11.714;2023-02-21T09:11:46;95.97;;;48.72;;
78027;SDS011;67235;45.638;11.714;2023-02-21T09:14:15;104.37;;;47.83;;
78027;SDS011;67235;45.638;11.714;2023-02-21T09:16:41;94.93;;;44.50;;
78027;SDS011;67235;45.638;11.714;2023-02-21T09:19:08;95.10;;;45.53;;
78027;SDS011;67235;45.638;11.714;2023-02-21T09:21:35;91.82;;;44.35;;
78027;SDS011;67235;45.638;11.714;2023-02-21T09:24:09;96.07;;;44.08;;
78027;SDS011;67235;45.638;11.714;2023-02-21T09:26:35;90.93;;;43.17;;
78027;SDS011;67235;45.638;11.714;2023-02-21T09:29:01;93.40;;;41.45;;
78027;SDS011;67235;45.638;11.714;2023-02-21T09:31:27;89.68;;;43.15;;
78027;SDS011;67235;45.638;11.714;2023-02-21T09:33:53;95.97;;;42.63;;
78027;SDS011;67235;45.638;11.714;2023-02-21T09:36:18;88.72;;;40.88;;
78027;SDS011;67235;45.638;11.714;2023-02-21T09:38:48;87.78;;;42.58;;
78027;SDS011;67235;45.638;11.714;2023-02-21T09:41:20;86.07;;;42.07;;
78027;SDS011;67235;45.638;11.714;2023-02-21T09:43:46;90.90;;;43.05;;
78027;SDS011;67235;45.638;11.714;2023-02-21T09:46:20;94.93;;;43.55;;
78027;SDS011;67235;45.638;11.714;2023-02-21T09:48:59;90.97;;;42.28;;
78027;SDS011;67235;45.638;11.714;2023-02-21T09:51:54;91.67;;;43.03;;
78027;SDS011;67235;45.638;11.714;2023-02-21T09:56:55;94.60;;;45.17;;
78027;SDS011;67235;45.638;11.714;2023-02-21T09:59:24;93.38;;;44.28;;
78027;SDS011;67235;45.638;11.714;2023-02-21T10:10:48;94.00;;;42.92;;
78027;SDS011;67235;45.638;11.714;2023-02-21T10:13:34;93.10;;;43.08;;
78027;SDS011;67235;45.638;11.714;2023-02-21T10:16:11;95.75;;;43.22;;
78027;SDS011;67235;45.638;11.714;2023-02-21T10:21:48;94.40;;;42.85;;
78027;SDS011;67235;45.638;11.714;2023-02-21T10:24:16;92.13;;;43.28;;
78027;SDS011;67235;45.638;11.714;2023-02-21T10:26:47;95.30;;;42.58;;
78027;SDS011;67235;45.638;11.714;2023-02-21T10:29:21;88.10;;;41.92;;
78027;SDS011;67235;45.638;11.714;2023-02-21T10:31:51;87.20;;;42.47;;
78027;SDS011;67235;45.638;11.714;2023-02-21T10:34:25;90.70;;;42.58;;
78027;SDS011;67235;45.638;11.714;2023-02-21T10:36:56;93.03;;;43.45;;
78027;SDS011;67235;45.638;11.714;2023-02-21T10:39:39;93.18;;;42.40;;
78027;SDS011;67235;45.638;11.714;2023-02-21T10:42:13;88.07;;;40.97;;
78027;SDS011;67235;45.638;11.714;2023-02-21T10:44:50;95.60;;;43.28;;
78027;SDS011;67235;45.638;11.714;2023-02-21T10:47:18;101.30;;;45.65;;
78027;SDS011;67235;45.638;11.714;2023-02-21T10:50:00;88.90;;;44.00;;
78027;SDS011;67235;45.638;11.714;2023-02-21T10:52:52;98.38;;;42.80;;
78027;SDS011;67235;45.638;11.714;2023-02-21T10:55:19;93.00;;;44.22;;
78027;SDS011;67235;45.638;11.714;2023-02-21T10:57:49;95.60;;;43.50;;
78027;SDS011;67235;45.638;11.714;2023-02-21T11:00:24;103.70;;;45.60;;
78027;SDS011;67235;45.638;11.714;2023-02-21T11:02:56;94.88;;;44.53;;
78027;SDS011;67235;45.638;11.714;2023-02-21T11:05:27;99.10;;;44.90;;
78027;SDS011;67235;45.638;11.714;2023-02-21T11:08:00;97.93;;;44.88;;
78027;SDS011;67235;45.638;11.714;2023-02-21T11:10:35;101.50;;;45.97;;
78027;SDS011;67235;45.638;11.714;2023-02-21T11:13:27;101.30;;;46.22;;
78027;SDS011;67235;45.638;11.714;2023-02-21T11:16:34;103.88;;;45.47;;
78027;SDS011;67235;45.638;11.714;2023-02-21T11:18:42;102.07;;;45.70;;
78027;SDS011;67235;45.638;11.714;2023-02-21T11:21:10;105.68;;;46.40;;
78027;SDS011;67235;45.638;11.714;2023-02-21T11:23:43;110.43;;;47.03;;
78027;SDS011;67235;45.638;11.714;2023-02-21T11:26:28;110.03;;;46.42;;
78027;SDS011;67235;45.638;11.714;2023-02-21T11:29:10;110.03;;;47.35;;
78027;SDS011;67235;45.638;11.714;2023-02-21T11:31:39;107.35;;;47.65;;
78027;SDS011;67235;45.638;11.714;2023-02-21T11:34:07;98.68;;;42.90;;
78027;SDS011;67235;45.638;11.714;2023-02-21T11:36:40;112.47;;;46.63;;
78027;SDS011;67235;45.638;11.714;2023-02-21T11:39:23;103.82;;;43.22;;
78027;SDS011;67235;45.638;11.714;2023-02-21T11:42:04;102.90;;;43.25;;
78027;SDS011;67235;45.638;11.714;2023-02-21T11:45:07;101.70;;;43.05;;
78027;SDS011;67235;45.638;11.714;2023-02-21T11:47:37;98.00;;;42.65;;
78027;SDS011;67235;45.638;11.714;2023-02-21T11:50:10;114.73;;;46.27;;
78027;SDS011;67235;45.638;11.714;2023-02-21T11:55:45;107.22;;;43.95;;
78027;SDS011;67235;45.638;11.714;2023-02-21T12:01:02;98.70;;;45.47;;
78027;SDS011;67235;45.638;11.714;2023-02-21T12:12:40;97.32;;;44.63;;
78027;SDS011;67235;45.638;11.714;2023-02-21T12:15:23;99.70;;;43.67;;
78027;SDS011;67235;45.638;11.714;2023-02-21T12:38:06;106.10;;;45.38;;
78027;SDS011;67235;45.638;11.714;2023-02-21T12:41:02;106.03;;;44.65;;
78027;SDS011;67235;45.638;11.714;2023-02-21T12:46:37;108.70;;;47.80;;
78027;SDS011;67235;45.638;11.714;2023-02-21T12:51:57;102.60;;;46.75;;
78027;SDS011;67235;45.638;11.714;2023-02-21T12:57:32;106.03;;;46.25;;
78027;SDS011;67235;45.638;11.714;2023-02-21T13:00:33;111.43;;;45.40;;
78027;SDS011;67235;45.638;11.714;2023-02-21T13:03:21;115.60;;;47.40;;
78027;SDS011;67235;45.638;11.714;2023-02-21T13:06:01;110.82;;;48.08;;
78027;SDS011;67235;45.638;11.714;2023-02-21T13:08:48;114.72;;;48.50;;
78027;SDS011;67235;45.638;11.714;2023-02-21T13:11:30;106.18;;;45.75;;
78027;SDS011;67235;45.638;11.714;2023-02-21T13:14:00;115.37;;;48.97;;
78027;SDS011;67235;45.638;11.714;2023-02-21T13:16:27;110.05;;;46.95;;
78027;SDS011;67235;45.638;11.714;2023-02-21T13:18:54;106.53;;;47.03;;
78027;SDS011;67235;45.638;11.714;2023-02-21T13:24:14;111.30;;;47.70;;
78027;SDS011;67235;45.638;11.714;2023-02-21T13:30:01;107.53;;;44.65;;
78027;SDS011;67235;45.638;11.714;2023-02-21T13:32:55;114.97;;;47.45;;
78027;SDS011;67235;45.638;11.714;2023-02-21T13:35:29;109.50;;;46.25;;
78027;SDS011;67235;45.638;11.714;2023-02-21T13:37:57;107.05;;;43.80;;
78027;SDS011;67235;45.638;11.714;2023-02-21T13:40:30;105.27;;;45.60;;
78027;SDS011;67235;45.638;11.714;2023-02-21T13:43:01;107.07;;;46.42;;
78027;SDS011;67235;45.638;11.714;2023-02-21T13:45:38;110.68;;;44.20;;
78027;SDS011;67235;45.638;11.714;2023-02-21T13:55:34;106.80;;;44.22;;
78027;SDS011;67235;45.638;11.714;2023-02-21T14:02:56;103.90;;;45.25;;
78027;SDS011;67235;45.638;11.714;2023-02-21T14:16:16;98.15;;;42.63;;
78027;SDS011;67235;45.638;11.714;2023-02-21T14:18:56;94.30;;;41.43;;
78027;SDS011;67235;45.638;11.714;2023-02-21T14:53:16;121.23;;;43.20;;
78027;SDS011;67235;45.638;11.714;2023-02-21T15:02:55;104.43;;;42.35;;
78027;SDS011;67235;45.638;11.714;2023-02-21T15:10:51;108.38;;;44.47;;
78027;SDS011;67235;45.638;11.714;2023-02-21T15:13:27;106.68;;;44.40;;
78027;SDS011;67235;45.638;11.714;2023-02-21T15:16:08;110.20;;;43.13;;
78027;SDS011;67235;45.638;11.714;2023-02-21T15:18:40;104.63;;;43.08;;
78027;SDS011;67235;45.638;11.714;2023-02-21T15:21:24;111.83;;;43.27;;
78027;SDS011;67235;45.638;11.714;2023-02-21T15:24:10;102.40;;;43.65;;
78027;SDS011;67235;45.638;11.714;2023-02-21T15:26:48;104.57;;;43.00;;
78027;SDS011;67235;45.638;11.714;2023-02-21T15:29:18;108.18;;;42.38;;
78027;SDS011;67235;45.638;11.714;2023-02-21T15:34:27;95.17;;;41.40;;
78027;SDS011;67235;45.638;11.714;2023-02-21T15:39:49;108.68;;;42.95;;
78027;SDS011;67235;45.638;11.714;2023-02-21T15:42:20;97.18;;;41.95;;
78027;SDS011;67235;45.638;11.714;2023-02-21T15:44:48;103.32;;;41.10;;
78027;SDS011;67235;45.638;11.714;2023-02-21T15:47:21;108.07;;;42.13;;
78027;SDS011;67235;45.638;11.714;2023-02-21T15:52:41;96.72;;;40.92;;
78027;SDS011;67235;45.638;11.714;2023-02-21T16:00:30;106.83;;;43.60;;
78027;SDS011;67235;45.638;11.714;2023-02-21T16:04:18;107.40;;;44.80;;
78027;SDS011;67235;45.638;11.714;2023-02-21T16:06:52;102.60;;;44.17;;
78027;SDS011;67235;45.638;11.714;2023-02-21T16:09:33;105.78;;;42.25;;
78027;SDS011;67235;45.638;11.714;2023-02-21T16:12:19;116.43;;;46.08;;
78027;SDS011;67235;45.638;11.714;2023-02-21T16:18:06;113.47;;;46.17;;
78027;SDS011;67235;45.638;11.714;2023-02-21T16:21:19;109.85;;;45.30;;
78027;SDS011;67235;45.638;11.714;2023-02-21T16:27:26;113.00;;;47.03;;
78027;SDS011;67235;45.638;11.714;2023-02-21T16:30:22;105.97;;;44.70;;
78027;SDS011;67235;45.638;11.714;2023-02-21T16:33:08;111.05;;;45.75;;
78027;SDS011;67235;45.638;11.714;2023-02-21T16:35:37;112.15;;;44.40;;
78027;SDS011;67235;45.638;11.714;2023-02-21T16:38:14;115.97;;;44.83;;
78027;SDS011;67235;45.638;11.714;2023-02-21T16:41:13;147.70;;;48.70;;
78027;SDS011;67235;45.638;11.714;2023-02-21T16:44:20;145.40;;;47.13;;
78027;SDS011;67235;45.638;11.714;2023-02-21T16:47:19;139.52;;;46.33;;
78027;SDS011;67235;45.638;11.714;2023-02-21T16:51:12;138.95;;;46.67;;
78027;SDS011;67235;45.638;11.714;2023-02-21T16:53:41;115.65;;;45.10;;
78027;SDS011;67235;45.638;11.714;2023-02-21T16:58:50;113.20;;;46.07;;
78027;SDS011;67235;45.638;11.714;2023-02-21T17:01:24;124.75;;;47.67;;
78027;SDS011;67235;45.638;11.714;2023-02-21T17:03:53;120.25;;;49.10;;
78027;SDS011;67235;45.638;11.714;2023-02-21T17:06:20;174.93;;;71.28;;
78027;SDS011;67235;45.638;11.714;2023-02-21T17:08:49;151.38;;;63.03;;
78027;SDS011;67235;45.638;11.714;2023-02-21T17:11:15;119.03;;;49.77;;
78027;SDS011;67235;45.638;11.714;2023-02-21T17:13:41;123.90;;;49.47;;
78027;SDS011;67235;45.638;11.714;2023-02-21T17:16:06;117.53;;;47.88;;
78027;SDS011;67235;45.638;11.714;2023-02-21T17:18:33;117.03;;;48.45;;
78027;SDS011;67235;45.638;11.714;2023-02-21T17:20:59;130.20;;;48.47;;
78027;SDS011;67235;45.638;11.714;2023-02-21T17:23:25;119.63;;;48.40;;
78027;SDS011;67235;45.638;11.714;2023-02-21T17:25:51;112.15;;;47.58;;
78027;SDS011;67235;45.638;11.714;2023-02-21T17:28:17;118.37;;;46.47;;
78027;SDS011;67235;45.638;11.714;2023-02-21T17:30:43;119.65;;;47.95;;
78027;SDS011;67235;45.638;11.714;2023-02-21T17:33:09;118.18;;;48.25;;
78027;SDS011;67235;45.638;11.714;2023-02-21T17:35:35;124.87;;;50.93;;
78027;SDS011;67235;45.638;11.714;2023-02-21T17:38:02;121.18;;;49.40;;
78027;SDS011;67235;45.638;11.714;2023-02-21T17:40:28;124.15;;;50.22;;
78027;SDS011;67235;45.638;11.714;2023-02-21T17:43:04;117.80;;;47.15;;
78027;SDS011;67235;45.638;11.714;2023-02-21T17:45:34;120.20;;;49.13;;
78027;SDS011;67235;45.638;11.714;2023-02-21T17:48:03;124.57;;;49.17;;
78027;SDS011;67235;45.638;11.714;2023-02-21T17:51:15;110.80;;;45.40;;
78027;SDS011;67235;45.638;11.714;2023-02-21T17:53:54;127.80;;;52.28;;
78027;SDS011;67235;45.638;11.714;2023-02-21T17:56:47;140.63;;;53.03;;
78027;SDS011;67235;45.638;11.714;2023-02-21T17:59:19;143.30;;;54.83;;
78027;SDS011;67235;45.638;11.714;2023-02-21T18:01:54;134.65;;;53.58;;
78027;SDS011;67235;45.638;11.714;2023-02-21T18:04:22;132.45;;;53.33;;
78027;SDS011;67235;45.638;11.714;2023-02-21T18:06:48;142.48;;;56.83;;
78027;SDS011;67235;45.638;11.714;2023-02-21T18:09:14;145.65;;;55.70;;
78027;SDS011;67235;45.638;11.714;2023-02-21T18:11:46;146.60;;;56.20;;
78027;SDS011;67235;45.638;11.714;2023-02-21T18:14:13;146.95;;;55.97;;
78027;SDS011;67235;45.638;11.714;2023-02-21T18:16:48;145.73;;;57.80;;
78027;SDS011;67235;45.638;11.714;2023-02-21T18:19:19;141.63;;;55.05;;
78027;SDS011;67235;45.638;11.714;2023-02-21T18:21:45;130.13;;;51.88;;
78027;SDS011;67235;45.638;11.714;2023-02-21T18:24:23;121.80;;;49.87;;
78027;SDS011;67235;45.638;11.714;2023-02-21T18:26:59;126.70;;;52.20;;
78027;SDS011;67235;45.638;11.714;2023-02-21T18:38:08;136.90;;;57.63;;